createdAt,value
2023-02-11T00:02:05.217Z,12.98
2023-02-11T00:04:32.336Z,19.05
2023-02-11T00:06:59.445Z,15.20
2023-02-11T00:09:26.508Z,11.27
2023-02-11T00:11:53.548Z,12.65
2023-02-11T00:14:20.727Z,11.68
2023-02-11T00:16:47.802Z,12.70
2023-02-11T00:19:14.897Z,9.55
2023-02-11T00:21:41.969Z,9.40
2023-02-11T00:24:09.051Z,10.10
2023-02-11T00:26:36.372Z,9.73
2023-02-11T00:29:05.062Z,8.40
2023-02-11T00:31:32.799Z,11.68
2023-02-11T00:34:00.140Z,12.05
2023-02-11T00:36:28.558Z,10.40
2023-02-11T00:38:57.677Z,9.95
2023-02-11T00:41:25.968Z,7.47
2023-02-11T00:43:53.785Z,8.38
2023-02-11T00:46:21.206Z,7.53
2023-02-11T00:48:48.713Z,7.87
2023-02-11T00:51:15.775Z,10.57
2023-02-11T00:53:42.943Z,7.65
2023-02-11T00:56:10.448Z,7.43
2023-02-11T00:58:38.284Z,9.98
2023-02-11T01:01:05.648Z,6.80
2023-02-11T01:03:32.790Z,8.70
2023-02-11T01:05:59.862Z,8.32
2023-02-11T01:08:27.033Z,6.40
2023-02-11T01:11:08.438Z,7.43
2023-02-11T01:13:37.212Z,5.93
2023-02-11T01:16:07.384Z,6.03
2023-02-11T01:18:35.000Z,8.55
2023-02-11T01:21:02.125Z,6.25
2023-02-11T01:23:29.219Z,5.45
2023-02-11T01:25:56.563Z,7.20
2023-02-11T01:28:27.830Z,11.13
2023-02-11T01:30:55.692Z,7.65
2023-02-11T01:33:23.670Z,11.63
2023-02-11T01:35:51.061Z,9.15
2023-02-11T01:38:24.287Z,10.63
2023-02-11T01:40:52.528Z,7.73
2023-02-11T01:43:20.056Z,7.75
2023-02-11T01:45:47.176Z,7.63
2023-02-11T01:48:20.016Z,9.98
2023-02-11T01:50:50.688Z,10.82
2023-02-11T01:53:37.003Z,9.55
2023-02-11T01:56:24.344Z,6.13
2023-02-11T01:58:58.741Z,4.95
2023-02-11T02:01:27.515Z,3.67
2023-02-11T02:04:00.827Z,5.68
2023-02-11T02:06:55.800Z,4.80
2023-02-11T02:09:28.624Z,4.40
2023-02-11T02:11:55.747Z,2.40
2023-02-11T02:14:22.821Z,3.33
2023-02-11T02:16:50.358Z,8.50
2023-02-11T02:19:29.041Z,5.97
2023-02-11T02:22:44.735Z,4.78
2023-02-11T02:25:29.947Z,3.42
2023-02-11T02:28:05.661Z,4.35
2023-02-11T02:30:57.105Z,3.35
2023-02-11T02:33:40.534Z,5.40
2023-02-11T02:36:23.739Z,2.78
2023-02-11T02:39:18.006Z,2.60
2023-02-11T02:41:46.705Z,3.08
2023-02-11T02:44:13.846Z,2.47
2023-02-11T02:46:41.059Z,2.90
2023-02-11T02:49:14.168Z,2.83
2023-02-11T02:52:18.764Z,3.47
2023-02-11T02:55:14.500Z,2.65
2023-02-11T02:58:22.368Z,2.20
2023-02-11T03:01:08.240Z,3.42
2023-02-11T03:04:03.032Z,9.77
2023-02-11T03:06:45.183Z,2.70
2023-02-11T03:09:29.275Z,2.67
2023-02-11T03:11:57.017Z,3.37
2023-02-11T03:14:26.726Z,4.50
2023-02-11T03:16:57.172Z,3.55
2023-02-11T03:19:31.955Z,3.97
2023-02-11T03:22:00.980Z,3.30
2023-02-11T03:24:36.912Z,3.55
2023-02-11T03:27:12.375Z,3.72
2023-02-11T03:29:55.186Z,2.90
2023-02-11T03:32:50.088Z,3.60
2023-02-11T03:35:21.486Z,4.10
2023-02-11T03:38:17.800Z,2.33
2023-02-11T03:40:45.607Z,3.03
2023-02-11T03:43:20.121Z,2.80
2023-02-11T03:45:50.941Z,3.17
2023-02-11T03:48:34.801Z,2.25
2023-02-11T03:51:05.239Z,3.10
2023-02-11T03:53:32.356Z,3.10
2023-02-11T03:56:04.899Z,3.00
2023-02-11T03:58:31.968Z,1.90
2023-02-11T04:00:59.070Z,3.28
2023-02-11T04:03:26.210Z,3.85
2023-02-11T04:05:54.042Z,4.40
2023-02-11T04:08:21.236Z,8.23
2023-02-11T04:10:48.264Z,6.35
2023-02-11T04:13:15.346Z,9.20
2023-02-11T04:15:42.493Z,6.07
2023-02-11T04:18:09.552Z,6.33
2023-02-11T04:20:36.601Z,6.35
2023-02-11T04:23:03.725Z,3.75
2023-02-11T04:25:31.000Z,3.72
2023-02-11T04:27:58.109Z,4.88
2023-02-11T04:30:25.206Z,2.47
2023-02-11T04:32:54.122Z,3.95
2023-02-11T04:35:21.588Z,3.38
2023-02-11T04:37:48.691Z,2.67
2023-02-11T04:40:15.838Z,5.30
2023-02-11T04:42:42.893Z,3.33
2023-02-11T04:45:10.035Z,10.65
2023-02-11T04:47:37.884Z,9.38
2023-02-11T04:50:05.378Z,7.43
2023-02-11T04:52:32.428Z,4.80
2023-02-11T04:54:59.484Z,3.67
2023-02-11T04:57:26.530Z,4.37
2023-02-11T04:59:53.751Z,8.32
2023-02-11T05:02:20.833Z,8.18
2023-02-11T05:04:47.988Z,5.70
2023-02-11T05:07:15.127Z,8.73
2023-02-11T05:09:42.183Z,5.20
2023-02-11T05:12:10.445Z,6.13
2023-02-11T05:14:37.533Z,4.53
2023-02-11T05:17:04.686Z,6.00
2023-02-11T05:19:31.989Z,3.53
2023-02-11T05:22:03.020Z,3.67
2023-02-11T05:24:34.492Z,3.40
2023-02-11T05:27:01.856Z,2.38
2023-02-11T05:29:28.950Z,3.30
2023-02-11T05:31:56.100Z,4.07
2023-02-11T05:34:23.167Z,2.20
2023-02-11T05:36:50.233Z,2.47
2023-02-11T05:39:17.305Z,2.75
2023-02-11T05:41:44.465Z,5.95
2023-02-11T05:44:11.588Z,9.90
2023-02-11T05:46:38.731Z,5.67
2023-02-11T05:49:05.833Z,5.68
2023-02-11T05:51:32.892Z,6.88
2023-02-11T05:53:59.957Z,4.72
2023-02-11T05:56:27.069Z,6.75
2023-02-11T05:58:54.110Z,7.50
2023-02-11T06:01:21.164Z,5.45
2023-02-11T06:03:50.000Z,4.00
2023-02-11T06:06:17.398Z,6.88
2023-02-11T06:08:44.426Z,7.45
2023-02-11T06:11:11.556Z,7.80
2023-02-11T06:13:38.625Z,8.95
2023-02-11T06:16:05.885Z,14.47
2023-02-11T06:18:33.618Z,6.50
2023-02-11T06:21:00.793Z,13.20
2023-02-11T06:23:30.266Z,8.43
2023-02-11T06:26:05.524Z,5.35
2023-02-11T06:28:32.951Z,10.45
2023-02-11T06:31:06.781Z,9.98
2023-02-11T06:33:35.092Z,5.53
2023-02-11T06:36:02.435Z,8.50
2023-02-11T06:38:29.498Z,5.03
2023-02-11T06:40:56.609Z,4.13
2023-02-11T06:43:23.699Z,11.98
2023-02-11T06:45:54.919Z,11.73
2023-02-11T06:48:23.262Z,8.63
2023-02-11T06:50:50.298Z,7.75
2023-02-11T06:53:17.447Z,6.70
2023-02-11T06:55:44.542Z,6.07
2023-02-11T06:58:11.650Z,6.82
2023-02-11T07:00:38.858Z,3.92
2023-02-11T07:03:05.970Z,5.97
2023-02-11T07:05:34.180Z,3.38
2023-02-11T07:08:01.256Z,2.40
2023-02-11T07:10:28.335Z,3.42
2023-02-11T07:12:58.397Z,4.30
2023-02-11T07:15:26.305Z,3.17
2023-02-11T07:17:53.383Z,4.47
2023-02-11T07:20:20.477Z,6.80
2023-02-11T07:22:47.523Z,7.03
2023-02-11T07:25:14.672Z,4.07
2023-02-11T07:27:41.894Z,3.85
2023-02-11T07:30:09.657Z,6.07
2023-02-11T07:32:36.710Z,9.15
2023-02-11T07:35:04.795Z,9.02
2023-02-11T07:37:34.231Z,13.47
2023-02-11T07:40:01.358Z,9.55
2023-02-11T07:42:28.411Z,9.98
2023-02-11T07:44:55.497Z,8.10
2023-02-11T07:47:22.578Z,6.82
2023-02-11T07:49:49.709Z,5.47
2023-02-11T07:52:16.807Z,7.45
2023-02-11T07:54:44.019Z,8.23
2023-02-11T07:57:11.171Z,7.77
2023-02-11T07:59:38.232Z,5.75
2023-02-11T08:02:05.334Z,11.48
2023-02-11T08:04:32.467Z,17.13
2023-02-11T08:06:59.508Z,9.10
2023-02-11T08:09:26.589Z,9.32
2023-02-11T08:11:53.821Z,11.30
2023-02-11T08:14:20.977Z,9.38
2023-02-11T08:16:48.216Z,7.63
2023-02-11T08:19:16.684Z,11.25
2023-02-11T08:21:44.112Z,8.40
2023-02-11T08:24:11.325Z,7.65
2023-02-11T08:26:38.613Z,9.50
2023-02-11T08:29:11.094Z,8.40
2023-02-11T08:31:41.219Z,8.20
2023-02-11T08:34:09.982Z,10.32
2023-02-11T08:36:38.586Z,9.07
2023-02-11T08:39:33.415Z,10.57
2023-02-11T08:42:00.535Z,12.13
2023-02-11T08:44:27.910Z,12.32
2023-02-11T08:46:55.832Z,15.85
2023-02-11T08:49:23.236Z,23.67
2023-02-11T08:51:50.711Z,19.80
2023-02-11T08:54:18.010Z,22.65
2023-02-11T08:56:45.378Z,47.30
2023-02-11T08:59:17.007Z,28.42
2023-02-11T09:01:44.647Z,27.33
2023-02-11T09:04:11.864Z,24.02
2023-02-11T09:06:39.310Z,22.40
2023-02-11T09:09:06.505Z,14.98
2023-02-11T09:11:35.904Z,17.85
2023-02-11T09:14:04.093Z,14.55
2023-02-11T09:16:34.247Z,14.10
2023-02-11T09:19:04.296Z,13.33
2023-02-11T09:21:31.574Z,12.80
2023-02-11T09:23:58.693Z,7.03
2023-02-11T09:26:28.537Z,11.30
2023-02-11T09:28:56.242Z,9.38
2023-02-11T09:31:25.924Z,10.27
2023-02-11T09:33:55.891Z,9.70
2023-02-11T09:36:29.262Z,14.07
2023-02-11T09:38:58.838Z,10.33
2023-02-11T09:41:39.036Z,10.30
2023-02-11T09:44:10.563Z,8.50
2023-02-11T09:46:43.079Z,9.35
2023-02-11T09:49:23.071Z,6.70
2023-02-11T09:51:57.190Z,7.90
2023-02-11T09:54:34.056Z,5.72
2023-02-11T09:57:01.225Z,5.95
2023-02-11T09:59:28.330Z,9.43
2023-02-11T10:01:59.190Z,6.38
2023-02-11T10:04:29.043Z,5.90
2023-02-11T10:07:31.755Z,5.70
2023-02-11T10:10:28.013Z,5.78
2023-02-11T10:13:13.520Z,4.55
2023-02-11T10:15:49.929Z,7.23
2023-02-11T10:18:45.102Z,6.75
2023-02-11T10:21:29.148Z,6.28
2023-02-11T10:24:00.625Z,7.10
2023-02-11T10:26:30.884Z,9.30
2023-02-11T10:29:02.574Z,9.20
2023-02-11T10:31:38.401Z,10.27
2023-02-11T10:34:09.662Z,9.23
2023-02-11T10:36:39.786Z,7.40
2023-02-11T10:39:27.568Z,7.53
2023-02-11T10:41:59.194Z,6.77
2023-02-11T10:44:37.336Z,9.75
2023-02-11T10:47:21.077Z,7.35
2023-02-11T10:49:48.968Z,5.35
2023-02-11T10:52:30.388Z,4.43
2023-02-11T10:54:59.246Z,3.05
2023-02-11T10:57:31.040Z,3.70
2023-02-11T11:00:02.359Z,4.20
2023-02-11T11:02:36.748Z,3.30
2023-02-11T11:05:14.776Z,4.47
2023-02-11T11:07:56.402Z,5.27
2023-02-11T11:10:46.878Z,5.85
2023-02-11T11:13:23.209Z,7.60
2023-02-11T11:16:10.260Z,6.55
2023-02-11T11:18:37.965Z,4.43
2023-02-11T11:21:14.337Z,6.68
2023-02-11T11:23:49.247Z,4.90
2023-02-11T11:26:17.405Z,26.15
2023-02-11T11:28:57.741Z,18.52
2023-02-11T11:31:45.384Z,12.45
2023-02-11T11:34:28.072Z,12.07
2023-02-11T11:36:57.139Z,13.93
2023-02-11T11:39:30.855Z,16.88
2023-02-11T11:42:21.774Z,11.73
2023-02-11T11:45:01.326Z,10.73
2023-02-11T11:47:37.904Z,10.98
2023-02-11T11:50:37.813Z,9.57
2023-02-11T11:53:18.871Z,8.97
2023-02-11T11:55:58.682Z,7.77
2023-02-11T11:58:28.949Z,9.13
2023-02-11T12:01:41.101Z,8.20
2023-02-11T12:04:26.395Z,6.32
2023-02-11T12:07:23.983Z,3.75
2023-02-11T12:10:23.656Z,6.78
2023-02-11T12:12:59.794Z,7.20
2023-02-11T12:15:47.763Z,3.85
2023-02-11T12:18:39.285Z,6.97
2023-02-11T12:21:29.419Z,4.53
2023-02-11T12:24:17.351Z,4.65
2023-02-11T12:26:53.131Z,5.60
2023-02-11T12:29:41.854Z,4.43
2023-02-11T12:32:25.808Z,4.80
2023-02-11T12:34:55.620Z,5.78
2023-02-11T12:37:44.771Z,3.08
2023-02-11T12:40:32.825Z,4.13
2023-02-11T12:43:26.463Z,5.15
2023-02-11T12:46:27.084Z,6.05
2023-02-11T12:49:19.981Z,5.03
2023-02-11T12:52:02.383Z,6.07
2023-02-11T12:54:41.878Z,9.32
2023-02-11T12:57:27.710Z,7.80
2023-02-11T13:00:13.500Z,6.28
2023-02-11T13:02:49.195Z,9.70
2023-02-11T13:05:28.088Z,9.38
2023-02-11T13:08:17.886Z,9.10
2023-02-11T13:10:53.942Z,9.02
2023-02-11T13:14:05.737Z,10.23
2023-02-11T13:16:40.933Z,8.38
2023-02-11T13:19:18.331Z,10.50
2023-02-11T13:22:04.893Z,16.73
2023-02-11T13:24:51.343Z,65.07
2023-02-11T13:27:41.074Z,31.45
2023-02-11T13:30:34.495Z,30.23
2023-02-11T13:33:03.269Z,16.40
2023-02-11T13:35:33.664Z,13.68
2023-02-11T13:38:03.133Z,29.05
2023-02-11T13:40:35.002Z,40.53
2023-02-11T13:43:04.692Z,19.13
2023-02-11T13:45:46.767Z,16.90
2023-02-11T13:48:30.387Z,20.95
2023-02-11T13:51:01.889Z,39.80
2023-02-11T13:53:29.974Z,28.90
2023-02-11T13:56:12.085Z,38.35
2023-02-11T13:58:50.052Z,28.07
2023-02-11T14:02:11.368Z,52.93
2023-02-11T14:05:23.009Z,38.50
2023-02-11T14:08:30.520Z,58.07
2023-02-11T14:11:22.213Z,49.58
2023-02-11T14:13:49.264Z,63.95
2023-02-11T14:16:36.391Z,34.40
2023-02-11T14:19:08.668Z,44.72
2023-02-11T14:21:40.222Z,40.47
2023-02-11T14:24:12.861Z,55.67
2023-02-11T14:26:56.044Z,37.95
2023-02-11T14:29:50.938Z,47.57
2023-02-11T14:32:45.532Z,31.33
2023-02-11T14:35:34.048Z,25.50
2023-02-11T14:38:14.606Z,28.83
2023-02-11T14:41:08.674Z,33.97
2023-02-11T14:43:40.766Z,41.58
2023-02-11T14:46:09.067Z,31.90
2023-02-11T14:48:38.320Z,21.77
2023-02-11T14:51:25.728Z,16.10
2023-02-11T14:53:57.730Z,12.18
2023-02-11T14:56:27.863Z,14.00
2023-02-11T14:58:55.452Z,12.70
2023-02-11T15:01:40.660Z,8.30
2023-02-11T15:04:26.790Z,14.02
2023-02-11T15:06:55.593Z,14.23
2023-02-11T15:09:31.181Z,19.77
2023-02-11T15:11:58.627Z,16.48
2023-02-11T15:14:32.979Z,13.60
2023-02-11T15:17:04.167Z,9.23
2023-02-11T15:19:35.956Z,12.93
2023-02-11T15:22:18.113Z,15.03
2023-02-11T15:24:45.326Z,9.45
2023-02-11T15:27:15.434Z,8.27
2023-02-11T15:29:45.496Z,8.15
2023-02-11T15:32:21.550Z,9.43
2023-02-11T15:34:50.689Z,6.63
2023-02-11T15:37:29.772Z,6.97
2023-02-11T15:40:09.900Z,6.40
2023-02-11T15:42:51.843Z,7.47
2023-02-11T15:45:20.437Z,4.45
2023-02-11T15:47:52.013Z,11.38
2023-02-11T15:50:21.152Z,21.80
2023-02-11T15:52:49.669Z,7.88
2023-02-11T15:55:17.834Z,27.63
2023-02-11T15:57:50.695Z,26.40
2023-02-11T16:00:21.111Z,38.15
2023-02-11T16:02:50.741Z,31.83
2023-02-11T16:05:36.999Z,25.70
2023-02-11T16:08:26.155Z,24.85
2023-02-11T16:11:02.370Z,17.35
2023-02-11T16:13:35.259Z,13.10
2023-02-11T16:16:17.906Z,20.10
2023-02-11T16:19:03.169Z,12.03
2023-02-11T16:21:35.677Z,11.63
2023-02-11T16:24:03.819Z,21.08
2023-02-11T16:26:32.937Z,68.93
2023-02-11T16:29:05.528Z,40.67
2023-02-11T16:31:36.772Z,24.92
2023-02-11T16:34:20.233Z,21.90
2023-02-11T16:36:48.392Z,17.67
2023-02-11T16:39:16.817Z,29.95
2023-02-11T16:41:44.477Z,13.52
2023-02-11T16:44:11.523Z,16.50
2023-02-11T16:46:39.768Z,18.20
2023-02-11T16:49:21.483Z,38.13
2023-02-11T16:51:51.321Z,36.38
2023-02-11T16:54:19.823Z,18.38
2023-02-11T16:56:47.054Z,23.27
2023-02-11T16:59:14.472Z,18.57
2023-02-11T17:01:43.466Z,16.13
2023-02-11T17:04:17.514Z,19.48
2023-02-11T17:06:44.978Z,17.27
2023-02-11T17:09:21.707Z,10.70
2023-02-11T17:11:49.379Z,13.52
2023-02-11T17:14:16.499Z,15.10
2023-02-11T17:16:45.052Z,13.27
2023-02-11T17:19:14.232Z,9.13
2023-02-11T17:21:45.705Z,10.27
2023-02-11T17:24:14.946Z,12.18
2023-02-11T17:26:43.414Z,10.93
2023-02-11T17:29:13.510Z,10.38
2023-02-11T17:31:40.953Z,11.45
2023-02-11T17:34:08.371Z,6.20
2023-02-11T17:36:35.503Z,8.93
2023-02-11T17:39:06.954Z,14.40
2023-02-11T17:41:37.395Z,9.82
2023-02-11T17:44:08.388Z,11.55
2023-02-11T17:46:35.987Z,10.27
2023-02-11T17:49:03.710Z,9.55
2023-02-11T17:51:38.265Z,8.77
2023-02-11T17:54:08.666Z,6.87
2023-02-11T17:56:36.898Z,7.10
2023-02-11T17:59:05.371Z,7.30
2023-02-11T18:01:33.537Z,7.00
2023-02-11T18:04:01.312Z,3.97
2023-02-11T18:06:33.606Z,4.10
2023-02-11T18:09:04.028Z,4.90
2023-02-11T18:11:33.131Z,5.30
2023-02-11T18:14:01.790Z,3.30
2023-02-11T18:16:30.254Z,5.70
2023-02-11T18:18:58.440Z,5.80
2023-02-11T18:21:25.848Z,2.83
2023-02-11T18:23:53.071Z,2.50
2023-02-11T18:26:21.410Z,3.17
2023-02-11T18:28:48.517Z,3.43
2023-02-11T18:31:15.880Z,2.50
2023-02-11T18:33:43.630Z,3.83
2023-02-11T18:36:13.894Z,3.95
2023-02-11T18:38:41.620Z,4.10
2023-02-11T18:41:09.222Z,4.03
2023-02-11T18:43:37.016Z,2.72
2023-02-11T18:46:09.021Z,4.10
2023-02-11T18:48:36.403Z,6.60
2023-02-11T18:51:12.973Z,5.47
2023-02-11T18:53:40.204Z,13.73
2023-02-11T18:56:10.792Z,5.95
2023-02-11T18:58:38.901Z,7.18
2023-02-11T19:01:15.520Z,6.53
2023-02-11T19:03:43.625Z,4.90
2023-02-11T19:06:20.731Z,4.78
2023-02-11T19:08:48.078Z,3.05
2023-02-11T19:11:17.781Z,3.67
2023-02-11T19:13:47.534Z,3.50
2023-02-11T19:16:16.694Z,2.23
2023-02-11T19:18:44.485Z,3.67
2023-02-11T19:21:13.926Z,1.60
2023-02-11T19:23:41.048Z,2.25
2023-02-11T19:26:08.146Z,3.03
2023-02-11T19:28:36.968Z,1.65
2023-02-11T19:31:08.692Z,1.73
2023-02-11T19:33:36.619Z,2.08
2023-02-11T19:36:09.356Z,2.10
2023-02-11T19:38:38.140Z,1.67
2023-02-11T19:41:05.341Z,2.97
2023-02-11T19:43:32.411Z,1.90
2023-02-11T19:46:02.569Z,1.40
2023-02-11T19:48:29.697Z,2.40
2023-02-11T19:50:56.805Z,2.00
2023-02-11T19:53:24.434Z,1.40
2023-02-11T19:55:51.743Z,1.90
2023-02-11T19:58:18.883Z,4.20
2023-02-11T20:00:45.946Z,3.17
2023-02-11T20:03:12.994Z,2.33
2023-02-11T20:05:42.258Z,4.53
2023-02-11T20:08:09.343Z,5.90
2023-02-11T20:10:36.415Z,3.30
2023-02-11T20:13:03.882Z,4.57
2023-02-11T20:15:31.271Z,4.25
2023-02-11T20:17:58.365Z,4.60
2023-02-11T20:20:25.435Z,4.22
2023-02-11T20:22:52.495Z,5.22
2023-02-11T20:25:19.562Z,5.82
2023-02-11T20:27:46.634Z,5.47
2023-02-11T20:30:14.326Z,5.93
2023-02-11T20:32:41.486Z,5.20
2023-02-11T20:35:09.276Z,7.25
2023-02-11T20:37:36.463Z,5.15
2023-02-11T20:40:03.723Z,5.13
2023-02-11T20:42:30.784Z,6.37
2023-02-11T20:44:57.823Z,5.83
2023-02-11T20:47:24.874Z,4.30
2023-02-11T20:49:54.464Z,4.03
2023-02-11T20:52:21.710Z,3.50
2023-02-11T20:54:48.787Z,5.30
2023-02-11T20:57:15.895Z,3.47
2023-02-11T20:59:42.927Z,5.43
2023-02-11T21:02:10.255Z,2.90
2023-02-11T21:04:38.968Z,2.88
2023-02-11T21:07:06.205Z,5.53
2023-02-11T21:09:33.792Z,5.63
2023-02-11T21:12:01.762Z,7.05
2023-02-11T21:14:29.887Z,6.20
2023-02-11T21:16:57.685Z,4.53
2023-02-11T21:19:24.840Z,2.65
2023-02-11T21:21:54.672Z,4.85
2023-02-11T21:24:21.926Z,3.17
2023-02-11T21:26:49.053Z,3.42
2023-02-11T21:29:16.133Z,2.95
2023-02-11T21:31:43.381Z,3.07
2023-02-11T21:34:10.772Z,6.55
2023-02-11T21:36:37.949Z,3.60
2023-02-11T21:39:05.848Z,6.32
2023-02-11T21:41:33.008Z,4.32
2023-02-11T21:44:00.218Z,3.72
2023-02-11T21:46:27.749Z,12.38
2023-02-11T21:48:54.855Z,7.70
2023-02-11T21:51:24.140Z,9.40
2023-02-11T21:54:11.518Z,6.85
2023-02-11T21:56:38.628Z,7.82
2023-02-11T21:59:05.684Z,5.28
2023-02-11T22:01:35.457Z,4.60
2023-02-11T22:04:02.893Z,7.43
2023-02-11T22:06:33.220Z,6.65
2023-02-11T22:09:08.672Z,7.40
2023-02-11T22:11:35.781Z,4.55
2023-02-11T22:14:03.645Z,5.95
2023-02-11T22:16:30.872Z,4.05
2023-02-11T22:18:58.848Z,3.45
2023-02-11T22:21:26.787Z,3.17
2023-02-11T22:23:55.453Z,2.08
2023-02-11T22:26:24.644Z,2.67
2023-02-11T22:28:51.979Z,3.67
2023-02-11T22:31:25.426Z,34.47
2023-02-11T22:33:52.600Z,17.60
2023-02-11T22:36:22.867Z,9.43
2023-02-11T22:38:50.958Z,19.45
2023-02-11T22:41:18.607Z,14.82
2023-02-11T22:43:45.798Z,11.93
2023-02-11T22:46:17.059Z,13.40
2023-02-11T22:48:44.203Z,13.57
2023-02-11T22:51:14.622Z,10.82
2023-02-11T22:53:43.540Z,11.15
2023-02-11T22:56:15.397Z,11.75
2023-02-11T22:58:43.222Z,8.67
2023-02-11T23:01:10.709Z,9.18
2023-02-11T23:03:38.265Z,9.60
2023-02-11T23:06:05.613Z,16.33
2023-02-11T23:08:33.524Z,15.55
2023-02-11T23:11:06.244Z,21.75
2023-02-11T23:13:36.045Z,16.45
2023-02-11T23:16:09.011Z,15.38
2023-02-11T23:18:38.117Z,12.90
2023-02-11T23:21:12.603Z,9.95
2023-02-11T23:23:39.954Z,10.00
2023-02-11T23:26:11.097Z,8.23
2023-02-11T23:28:38.793Z,9.30
2023-02-11T23:31:33.905Z,9.40
2023-02-11T23:34:01.701Z,11.13
2023-02-11T23:36:29.534Z,14.60
2023-02-11T23:38:56.785Z,10.10
2023-02-11T23:41:24.150Z,10.23
2023-02-11T23:43:52.867Z,11.15
2023-02-11T23:46:21.970Z,8.82
2023-02-11T23:48:50.094Z,8.80
2023-02-11T23:51:17.616Z,9.15
2023-02-11T23:53:46.122Z,5.75
2023-02-11T23:56:18.906Z,7.35
2023-02-11T23:58:49.024Z,4.90
